sensor_id;sensor_type;location;lat;lon;timestamp;P1;durP1;ratioP1;P2;durP2;ratioP2
50988;SDS011;37008;52.210;21.112;2022-12-07T00:00:54;70.00;;;40.30;;
50988;SDS011;37008;52.210;21.112;2022-12-07T00:03:20;70.78;;;40.80;;
50988;SDS011;37008;52.210;21.112;2022-12-07T00:05:46;59.75;;;34.55;;
50988;SDS011;37008;52.210;21.112;2022-12-07T00:08:11;56.60;;;33.60;;
50988;SDS011;37008;52.210;21.112;2022-12-07T00:10:37;55.92;;;33.80;;
50988;SDS011;37008;52.210;21.112;2022-12-07T00:13:03;75.13;;;38.42;;
50988;SDS011;37008;52.210;21.112;2022-12-07T00:15:28;72.53;;;36.13;;
50988;SDS011;37008;52.210;21.112;2022-12-07T00:17:54;61.40;;;33.67;;
50988;SDS011;37008;52.210;21.112;2022-12-07T00:20:19;83.60;;;41.42;;
50988;SDS011;37008;52.210;21.112;2022-12-07T00:22:45;80.05;;;39.80;;
50988;SDS011;37008;52.210;21.112;2022-12-07T00:25:10;83.40;;;40.60;;
50988;SDS011;37008;52.210;21.112;2022-12-07T00:27:36;86.93;;;40.33;;
50988;SDS011;37008;52.210;21.112;2022-12-07T00:30:02;94.53;;;44.97;;
50988;SDS011;37008;52.210;21.112;2022-12-07T00:32:28;105.40;;;46.42;;
50988;SDS011;37008;52.210;21.112;2022-12-07T00:34:53;83.95;;;42.55;;
50988;SDS011;37008;52.210;21.112;2022-12-07T00:37:19;95.00;;;41.63;;
50988;SDS011;37008;52.210;21.112;2022-12-07T00:39:45;71.47;;;38.17;;
50988;SDS011;37008;52.210;21.112;2022-12-07T00:42:11;63.47;;;35.17;;
50988;SDS011;37008;52.210;21.112;2022-12-07T00:44:36;65.47;;;35.53;;
50988;SDS011;37008;52.210;21.112;2022-12-07T00:47:02;72.05;;;36.50;;
50988;SDS011;37008;52.210;21.112;2022-12-07T00:49:28;62.70;;;35.28;;
50988;SDS011;37008;52.210;21.112;2022-12-07T00:51:53;57.97;;;32.47;;
50988;SDS011;37008;52.210;21.112;2022-12-07T00:54:19;70.90;;;35.85;;
50988;SDS011;37008;52.210;21.112;2022-12-07T00:56:44;63.53;;;35.75;;
50988;SDS011;37008;52.210;21.112;2022-12-07T00:59:12;67.78;;;38.10;;
50988;SDS011;37008;52.210;21.112;2022-12-07T01:01:39;71.78;;;38.00;;
50988;SDS011;37008;52.210;21.112;2022-12-07T01:04:05;76.03;;;39.33;;
50988;SDS011;37008;52.210;21.112;2022-12-07T01:06:31;64.65;;;36.78;;
50988;SDS011;37008;52.210;21.112;2022-12-07T01:08:56;65.05;;;37.67;;
50988;SDS011;37008;52.210;21.112;2022-12-07T01:11:24;71.65;;;37.08;;
50988;SDS011;37008;52.210;21.112;2022-12-07T01:13:52;59.88;;;35.42;;
50988;SDS011;37008;52.210;21.112;2022-12-07T01:16:19;74.05;;;35.95;;
50988;SDS011;37008;52.210;21.112;2022-12-07T01:18:47;58.35;;;34.05;;
50988;SDS011;37008;52.210;21.112;2022-12-07T01:21:16;65.15;;;36.15;;
50988;SDS011;37008;52.210;21.112;2022-12-07T01:23:43;55.97;;;32.03;;
50988;SDS011;37008;52.210;21.112;2022-12-07T01:26:10;84.40;;;39.65;;
50988;SDS011;37008;52.210;21.112;2022-12-07T01:28:37;88.10;;;40.20;;
50988;SDS011;37008;52.210;21.112;2022-12-07T01:31:07;74.32;;;38.38;;
50988;SDS011;37008;52.210;21.112;2022-12-07T01:33:39;57.28;;;33.13;;
50988;SDS011;37008;52.210;21.112;2022-12-07T01:38:33;73.43;;;39.42;;
50988;SDS011;37008;52.210;21.112;2022-12-07T01:40:59;74.75;;;39.60;;
50988;SDS011;37008;52.210;21.112;2022-12-07T01:43:26;70.65;;;38.10;;
50988;SDS011;37008;52.210;21.112;2022-12-07T01:45:53;91.30;;;42.22;;
50988;SDS011;37008;52.210;21.112;2022-12-07T01:48:21;81.30;;;44.30;;
50988;SDS011;37008;52.210;21.112;2022-12-07T01:51:08;75.65;;;41.05;;
50988;SDS011;37008;52.210;21.112;2022-12-07T01:53:38;69.35;;;41.35;;
50988;SDS011;37008;52.210;21.112;2022-12-07T01:56:07;82.32;;;42.85;;
50988;SDS011;37008;52.210;21.112;2022-12-07T01:58:34;125.28;;;62.83;;
50988;SDS011;37008;52.210;21.112;2022-12-07T02:01:00;155.65;;;75.22;;
50988;SDS011;37008;52.210;21.112;2022-12-07T02:03:47;139.30;;;70.45;;
50988;SDS011;37008;52.210;21.112;2022-12-07T02:06:20;102.15;;;50.47;;
50988;SDS011;37008;52.210;21.112;2022-12-07T02:08:49;83.70;;;45.65;;
50988;SDS011;37008;52.210;21.112;2022-12-07T02:11:14;85.75;;;45.17;;
50988;SDS011;37008;52.210;21.112;2022-12-07T02:13:41;58.75;;;34.28;;
50988;SDS011;37008;52.210;21.112;2022-12-07T02:16:12;48.38;;;30.40;;
50988;SDS011;37008;52.210;21.112;2022-12-07T02:21:51;49.25;;;27.05;;
50988;SDS011;37008;52.210;21.112;2022-12-07T02:27:17;46.10;;;25.20;;
50988;SDS011;37008;52.210;21.112;2022-12-07T02:30:00;44.72;;;25.45;;
50988;SDS011;37008;52.210;21.112;2022-12-07T02:32:34;37.90;;;22.05;;
50988;SDS011;37008;52.210;21.112;2022-12-07T02:35:12;32.45;;;20.52;;
50988;SDS011;37008;52.210;21.112;2022-12-07T02:40:29;27.67;;;18.25;;
50988;SDS011;37008;52.210;21.112;2022-12-07T02:43:02;24.95;;;17.33;;
50988;SDS011;37008;52.210;21.112;2022-12-07T02:45:33;27.80;;;18.73;;
50988;SDS011;37008;52.210;21.112;2022-12-07T02:48:01;21.30;;;12.98;;
50988;SDS011;37008;52.210;21.112;2022-12-07T02:50:28;29.50;;;19.63;;
50988;SDS011;37008;52.210;21.112;2022-12-07T02:52:54;27.10;;;18.13;;
50988;SDS011;37008;52.210;21.112;2022-12-07T02:55:22;27.80;;;17.08;;
50988;SDS011;37008;52.210;21.112;2022-12-07T02:58:05;25.63;;;16.27;;
50988;SDS011;37008;52.210;21.112;2022-12-07T03:00:40;27.77;;;17.67;;
50988;SDS011;37008;52.210;21.112;2022-12-07T03:03:17;22.35;;;16.10;;
50988;SDS011;37008;52.210;21.112;2022-12-07T03:05:52;22.25;;;15.43;;
50988;SDS011;37008;52.210;21.112;2022-12-07T03:11:24;21.70;;;15.00;;
50988;SDS011;37008;52.210;21.112;2022-12-07T03:14:00;23.17;;;15.30;;
50988;SDS011;37008;52.210;21.112;2022-12-07T03:16:35;23.05;;;14.93;;
50988;SDS011;37008;52.210;21.112;2022-12-07T03:19:07;23.42;;;15.73;;
50988;SDS011;37008;52.210;21.112;2022-12-07T03:21:38;25.15;;;16.50;;
50988;SDS011;37008;52.210;21.112;2022-12-07T03:24:08;25.50;;;17.17;;
50988;SDS011;37008;52.210;21.112;2022-12-07T03:26:41;23.92;;;16.27;;
50988;SDS011;37008;52.210;21.112;2022-12-07T03:29:13;21.45;;;15.45;;
50988;SDS011;37008;52.210;21.112;2022-12-07T03:31:48;23.40;;;16.33;;
50988;SDS011;37008;52.210;21.112;2022-12-07T03:34:34;24.05;;;16.38;;
50988;SDS011;37008;52.210;21.112;2022-12-07T03:37:08;24.98;;;17.08;;
50988;SDS011;37008;52.210;21.112;2022-12-07T03:39:49;26.05;;;16.98;;
50988;SDS011;37008;52.210;21.112;2022-12-07T03:42:25;27.77;;;16.35;;
50988;SDS011;37008;52.210;21.112;2022-12-07T03:44:51;26.58;;;17.27;;
50988;SDS011;37008;52.210;21.112;2022-12-07T03:47:37;27.25;;;15.75;;
50988;SDS011;37008;52.210;21.112;2022-12-07T03:53:40;23.60;;;15.05;;
50988;SDS011;37008;52.210;21.112;2022-12-07T03:56:07;19.52;;;13.30;;
50988;SDS011;37008;52.210;21.112;2022-12-07T03:58:34;16.42;;;11.73;;
50988;SDS011;37008;52.210;21.112;2022-12-07T04:01:01;18.63;;;12.82;;
50988;SDS011;37008;52.210;21.112;2022-12-07T04:03:26;20.00;;;12.95;;
50988;SDS011;37008;52.210;21.112;2022-12-07T04:05:52;15.40;;;11.93;;
50988;SDS011;37008;52.210;21.112;2022-12-07T04:08:18;17.27;;;11.50;;
50988;SDS011;37008;52.210;21.112;2022-12-07T04:10:44;17.27;;;11.75;;
50988;SDS011;37008;52.210;21.112;2022-12-07T04:13:10;17.80;;;11.90;;
50988;SDS011;37008;52.210;21.112;2022-12-07T04:15:35;15.52;;;11.40;;
50988;SDS011;37008;52.210;21.112;2022-12-07T04:18:01;16.52;;;11.85;;
50988;SDS011;37008;52.210;21.112;2022-12-07T04:20:26;15.27;;;11.02;;
50988;SDS011;37008;52.210;21.112;2022-12-07T04:22:52;14.80;;;10.75;;
50988;SDS011;37008;52.210;21.112;2022-12-07T04:25:18;15.18;;;11.10;;
50988;SDS011;37008;52.210;21.112;2022-12-07T04:27:43;15.18;;;10.38;;
50988;SDS011;37008;52.210;21.112;2022-12-07T04:30:09;14.27;;;10.88;;
50988;SDS011;37008;52.210;21.112;2022-12-07T04:32:35;13.73;;;10.23;;
50988;SDS011;37008;52.210;21.112;2022-12-07T04:35:00;13.95;;;10.48;;
50988;SDS011;37008;52.210;21.112;2022-12-07T04:37:26;12.55;;;10.13;;
50988;SDS011;37008;52.210;21.112;2022-12-07T04:39:51;17.65;;;11.38;;
50988;SDS011;37008;52.210;21.112;2022-12-07T04:42:17;14.32;;;10.45;;
50988;SDS011;37008;52.210;21.112;2022-12-07T04:44:43;14.68;;;10.35;;
50988;SDS011;37008;52.210;21.112;2022-12-07T04:47:09;17.08;;;10.98;;
50988;SDS011;37008;52.210;21.112;2022-12-07T04:49:35;13.57;;;9.60;;
50988;SDS011;37008;52.210;21.112;2022-12-07T04:52:00;16.08;;;10.07;;
50988;SDS011;37008;52.210;21.112;2022-12-07T04:54:26;13.60;;;10.23;;
50988;SDS011;37008;52.210;21.112;2022-12-07T04:56:51;14.13;;;10.02;;
50988;SDS011;37008;52.210;21.112;2022-12-07T04:59:17;14.60;;;10.45;;
50988;SDS011;37008;52.210;21.112;2022-12-07T05:01:43;12.82;;;9.73;;
50988;SDS011;37008;52.210;21.112;2022-12-07T05:04:08;14.00;;;9.85;;
50988;SDS011;37008;52.210;21.112;2022-12-07T05:06:34;15.23;;;11.02;;
50988;SDS011;37008;52.210;21.112;2022-12-07T05:09:00;13.48;;;10.35;;
50988;SDS011;37008;52.210;21.112;2022-12-07T05:11:26;13.82;;;10.07;;
50988;SDS011;37008;52.210;21.112;2022-12-07T05:14:12;14.55;;;10.18;;
50988;SDS011;37008;52.210;21.112;2022-12-07T05:16:39;14.65;;;10.27;;
50988;SDS011;37008;52.210;21.112;2022-12-07T05:19:06;15.68;;;11.27;;
50988;SDS011;37008;52.210;21.112;2022-12-07T05:21:32;14.85;;;11.27;;
50988;SDS011;37008;52.210;21.112;2022-12-07T05:23:58;20.98;;;11.68;;
50988;SDS011;37008;52.210;21.112;2022-12-07T05:26:24;15.63;;;10.75;;
50988;SDS011;37008;52.210;21.112;2022-12-07T05:28:53;18.60;;;10.77;;
50988;SDS011;37008;52.210;21.112;2022-12-07T05:31:20;16.15;;;11.32;;
50988;SDS011;37008;52.210;21.112;2022-12-07T05:33:46;16.98;;;10.48;;
50988;SDS011;37008;52.210;21.112;2022-12-07T05:36:12;14.85;;;10.80;;
50988;SDS011;37008;52.210;21.112;2022-12-07T05:38:38;18.35;;;11.73;;
50988;SDS011;37008;52.210;21.112;2022-12-07T05:41:04;17.02;;;10.27;;
50988;SDS011;37008;52.210;21.112;2022-12-07T05:43:31;17.17;;;11.27;;
50988;SDS011;37008;52.210;21.112;2022-12-07T05:45:57;16.48;;;11.13;;
50988;SDS011;37008;52.210;21.112;2022-12-07T05:48:23;19.33;;;10.52;;
50988;SDS011;37008;52.210;21.112;2022-12-07T05:50:49;20.65;;;11.57;;
50988;SDS011;37008;52.210;21.112;2022-12-07T05:53:15;16.92;;;10.65;;
50988;SDS011;37008;52.210;21.112;2022-12-07T05:55:41;15.60;;;11.45;;
50988;SDS011;37008;52.210;21.112;2022-12-07T05:58:07;16.77;;;12.13;;
50988;SDS011;37008;52.210;21.112;2022-12-07T06:00:53;17.17;;;11.85;;
50988;SDS011;37008;52.210;21.112;2022-12-07T06:03:19;20.25;;;13.40;;
50988;SDS011;37008;52.210;21.112;2022-12-07T06:05:45;19.05;;;12.63;;
50988;SDS011;37008;52.210;21.112;2022-12-07T06:08:11;19.60;;;13.45;;
50988;SDS011;37008;52.210;21.112;2022-12-07T06:10:36;22.10;;;14.00;;
50988;SDS011;37008;52.210;21.112;2022-12-07T06:13:02;22.80;;;15.70;;
50988;SDS011;37008;52.210;21.112;2022-12-07T06:15:27;22.23;;;15.10;;
50988;SDS011;37008;52.210;21.112;2022-12-07T06:17:53;21.25;;;14.15;;
50988;SDS011;37008;52.210;21.112;2022-12-07T06:20:18;21.92;;;14.73;;
50988;SDS011;37008;52.210;21.112;2022-12-07T06:22:44;21.63;;;14.65;;
50988;SDS011;37008;52.210;21.112;2022-12-07T06:25:09;25.13;;;15.45;;
50988;SDS011;37008;52.210;21.112;2022-12-07T06:27:35;23.23;;;14.90;;
50988;SDS011;37008;52.210;21.112;2022-12-07T06:30:01;20.38;;;14.45;;
50988;SDS011;37008;52.210;21.112;2022-12-07T06:32:31;23.38;;;15.15;;
50988;SDS011;37008;52.210;21.112;2022-12-07T06:34:57;24.63;;;15.85;;
50988;SDS011;37008;52.210;21.112;2022-12-07T06:37:23;24.50;;;16.02;;
50988;SDS011;37008;52.210;21.112;2022-12-07T06:39:49;25.20;;;15.25;;
50988;SDS011;37008;52.210;21.112;2022-12-07T06:42:14;23.90;;;15.57;;
50988;SDS011;37008;52.210;21.112;2022-12-07T06:44:40;24.60;;;15.93;;
50988;SDS011;37008;52.210;21.112;2022-12-07T06:47:05;22.58;;;15.57;;
50988;SDS011;37008;52.210;21.112;2022-12-07T06:49:32;23.20;;;15.05;;
50988;SDS011;37008;52.210;21.112;2022-12-07T06:51:58;23.13;;;14.65;;
50988;SDS011;37008;52.210;21.112;2022-12-07T06:54:24;24.25;;;15.85;;
50988;SDS011;37008;52.210;21.112;2022-12-07T06:56:49;25.88;;;14.55;;
50988;SDS011;37008;52.210;21.112;2022-12-07T06:59:15;21.52;;;14.15;;
50988;SDS011;37008;52.210;21.112;2022-12-07T07:01:41;23.63;;;14.70;;
50988;SDS011;37008;52.210;21.112;2022-12-07T07:04:06;22.80;;;15.18;;
50988;SDS011;37008;52.210;21.112;2022-12-07T07:06:32;21.05;;;14.40;;
50988;SDS011;37008;52.210;21.112;2022-12-07T07:08:57;25.52;;;14.23;;
50988;SDS011;37008;52.210;21.112;2022-12-07T07:11:23;22.55;;;15.40;;
50988;SDS011;37008;52.210;21.112;2022-12-07T07:13:49;20.95;;;14.75;;
50988;SDS011;37008;52.210;21.112;2022-12-07T07:16:14;24.98;;;15.85;;
50988;SDS011;37008;52.210;21.112;2022-12-07T07:18:40;21.30;;;13.88;;
50988;SDS011;37008;52.210;21.112;2022-12-07T07:21:05;20.50;;;13.75;;
50988;SDS011;37008;52.210;21.112;2022-12-07T07:23:31;21.60;;;14.30;;
50988;SDS011;37008;52.210;21.112;2022-12-07T07:25:56;23.60;;;14.13;;
50988;SDS011;37008;52.210;21.112;2022-12-07T07:28:22;20.92;;;13.88;;
50988;SDS011;37008;52.210;21.112;2022-12-07T07:30:48;19.13;;;13.45;;
50988;SDS011;37008;52.210;21.112;2022-12-07T07:33:13;21.35;;;13.75;;
50988;SDS011;37008;52.210;21.112;2022-12-07T07:35:40;19.10;;;13.27;;
50988;SDS011;37008;52.210;21.112;2022-12-07T07:38:05;26.10;;;13.40;;
50988;SDS011;37008;52.210;21.112;2022-12-07T07:40:32;20.05;;;13.50;;
50988;SDS011;37008;52.210;21.112;2022-12-07T07:42:57;19.50;;;13.25;;
50988;SDS011;37008;52.210;21.112;2022-12-07T07:45:23;18.42;;;12.63;;
50988;SDS011;37008;52.210;21.112;2022-12-07T07:47:50;22.05;;;14.05;;
50988;SDS011;37008;52.210;21.112;2022-12-07T07:50:16;20.50;;;13.23;;
50988;SDS011;37008;52.210;21.112;2022-12-07T07:52:42;25.15;;;13.93;;
50988;SDS011;37008;52.210;21.112;2022-12-07T07:55:08;20.23;;;13.98;;
50988;SDS011;37008;52.210;21.112;2022-12-07T07:57:34;18.90;;;13.00;;
50988;SDS011;37008;52.210;21.112;2022-12-07T08:00:04;20.48;;;13.85;;
50988;SDS011;37008;52.210;21.112;2022-12-07T08:02:35;21.13;;;13.80;;
50988;SDS011;37008;52.210;21.112;2022-12-07T08:05:00;23.55;;;13.65;;
50988;SDS011;37008;52.210;21.112;2022-12-07T08:07:26;21.70;;;13.57;;
50988;SDS011;37008;52.210;21.112;2022-12-07T08:09:52;20.75;;;13.77;;
50988;SDS011;37008;52.210;21.112;2022-12-07T08:12:18;25.52;;;13.90;;
50988;SDS011;37008;52.210;21.112;2022-12-07T08:14:43;20.85;;;13.57;;
50988;SDS011;37008;52.210;21.112;2022-12-07T08:17:09;20.65;;;14.02;;
50988;SDS011;37008;52.210;21.112;2022-12-07T08:19:34;25.08;;;15.68;;
50988;SDS011;37008;52.210;21.112;2022-12-07T08:22:00;22.73;;;14.77;;
50988;SDS011;37008;52.210;21.112;2022-12-07T08:24:26;26.40;;;14.68;;
50988;SDS011;37008;52.210;21.112;2022-12-07T08:26:51;27.08;;;15.15;;
50988;SDS011;37008;52.210;21.112;2022-12-07T08:29:17;28.25;;;16.00;;
50988;SDS011;37008;52.210;21.112;2022-12-07T08:31:43;27.65;;;15.35;;
50988;SDS011;37008;52.210;21.112;2022-12-07T08:34:12;26.15;;;16.20;;
50988;SDS011;37008;52.210;21.112;2022-12-07T08:36:38;30.98;;;17.25;;
50988;SDS011;37008;52.210;21.112;2022-12-07T08:39:04;30.73;;;15.73;;
50988;SDS011;37008;52.210;21.112;2022-12-07T08:41:30;36.88;;;19.13;;
50988;SDS011;37008;52.210;21.112;2022-12-07T08:43:55;32.55;;;17.40;;
50988;SDS011;37008;52.210;21.112;2022-12-07T08:46:22;33.55;;;18.23;;
50988;SDS011;37008;52.210;21.112;2022-12-07T08:49:19;36.92;;;19.65;;
50988;SDS011;37008;52.210;21.112;2022-12-07T08:51:51;34.30;;;19.05;;
50988;SDS011;37008;52.210;21.112;2022-12-07T08:54:17;42.45;;;19.98;;
50988;SDS011;37008;52.210;21.112;2022-12-07T08:56:44;43.67;;;22.10;;
50988;SDS011;37008;52.210;21.112;2022-12-07T08:59:13;41.17;;;22.70;;
50988;SDS011;37008;52.210;21.112;2022-12-07T09:01:41;45.00;;;22.88;;
50988;SDS011;37008;52.210;21.112;2022-12-07T09:04:07;49.53;;;22.10;;
50988;SDS011;37008;52.210;21.112;2022-12-07T09:06:33;44.45;;;24.90;;
50988;SDS011;37008;52.210;21.112;2022-12-07T09:08:59;42.33;;;23.13;;
50988;SDS011;37008;52.210;21.112;2022-12-07T09:11:26;47.88;;;24.67;;
50988;SDS011;37008;52.210;21.112;2022-12-07T09:13:52;41.22;;;23.23;;
50988;SDS011;37008;52.210;21.112;2022-12-07T09:16:18;37.63;;;22.23;;
50988;SDS011;37008;52.210;21.112;2022-12-07T09:18:43;37.42;;;22.10;;
50988;SDS011;37008;52.210;21.112;2022-12-07T09:21:09;35.28;;;21.17;;
50988;SDS011;37008;52.210;21.112;2022-12-07T09:23:35;33.67;;;18.80;;
50988;SDS011;37008;52.210;21.112;2022-12-07T09:26:01;38.40;;;22.25;;
50988;SDS011;37008;52.210;21.112;2022-12-07T09:28:27;36.20;;;20.80;;
50988;SDS011;37008;52.210;21.112;2022-12-07T09:30:53;35.85;;;20.08;;
50988;SDS011;37008;52.210;21.112;2022-12-07T09:33:19;34.65;;;19.25;;
50988;SDS011;37008;52.210;21.112;2022-12-07T09:35:45;30.30;;;19.50;;
50988;SDS011;37008;52.210;21.112;2022-12-07T09:38:15;29.85;;;18.17;;
50988;SDS011;37008;52.210;21.112;2022-12-07T09:40:41;27.30;;;18.13;;
50988;SDS011;37008;52.210;21.112;2022-12-07T09:43:15;32.55;;;18.92;;
50988;SDS011;37008;52.210;21.112;2022-12-07T09:48:16;33.50;;;18.25;;
50988;SDS011;37008;52.210;21.112;2022-12-07T09:50:43;29.48;;;19.05;;
50988;SDS011;37008;52.210;21.112;2022-12-07T09:53:14;29.05;;;19.17;;
50988;SDS011;37008;52.210;21.112;2022-12-07T09:56:01;32.88;;;18.90;;
50988;SDS011;37008;52.210;21.112;2022-12-07T09:58:28;34.50;;;20.75;;
50988;SDS011;37008;52.210;21.112;2022-12-07T10:01:05;42.03;;;23.60;;
50988;SDS011;37008;52.210;21.112;2022-12-07T10:03:45;38.25;;;22.60;;
50988;SDS011;37008;52.210;21.112;2022-12-07T10:06:16;35.13;;;20.13;;
50988;SDS011;37008;52.210;21.112;2022-12-07T10:08:42;27.30;;;16.33;;
50988;SDS011;37008;52.210;21.112;2022-12-07T10:11:08;30.10;;;17.48;;
50988;SDS011;37008;52.210;21.112;2022-12-07T10:13:42;25.55;;;16.60;;
50988;SDS011;37008;52.210;21.112;2022-12-07T10:19:38;25.70;;;15.43;;
50988;SDS011;37008;52.210;21.112;2022-12-07T10:22:02;27.75;;;15.80;;
50988;SDS011;37008;52.210;21.112;2022-12-07T10:24:33;26.90;;;16.98;;
50988;SDS011;37008;52.210;21.112;2022-12-07T10:27:00;26.08;;;16.88;;
50988;SDS011;37008;52.210;21.112;2022-12-07T10:29:33;29.17;;;17.10;;
50988;SDS011;37008;52.210;21.112;2022-12-07T10:32:06;26.70;;;16.60;;
50988;SDS011;37008;52.210;21.112;2022-12-07T10:34:41;34.05;;;17.92;;
50988;SDS011;37008;52.210;21.112;2022-12-07T10:39:42;27.00;;;17.17;;
50988;SDS011;37008;52.210;21.112;2022-12-07T10:42:16;28.40;;;16.88;;
50988;SDS011;37008;52.210;21.112;2022-12-07T10:44:47;28.88;;;15.07;;
50988;SDS011;37008;52.210;21.112;2022-12-07T10:52:28;24.02;;;14.80;;
50988;SDS011;37008;52.210;21.112;2022-12-07T10:58:27;21.70;;;14.23;;
50988;SDS011;37008;52.210;21.112;2022-12-07T11:01:12;24.35;;;16.13;;
50988;SDS011;37008;52.210;21.112;2022-12-07T11:09:39;25.38;;;16.42;;
50988;SDS011;37008;52.210;21.112;2022-12-07T11:18:15;20.98;;;14.65;;
50988;SDS011;37008;52.210;21.112;2022-12-07T11:20:53;21.90;;;15.15;;
50988;SDS011;37008;52.210;21.112;2022-12-07T11:27:09;20.83;;;14.65;;
50988;SDS011;37008;52.210;21.112;2022-12-07T11:29:44;19.65;;;14.68;;
50988;SDS011;37008;52.210;21.112;2022-12-07T11:37:48;21.35;;;15.30;;
50988;SDS011;37008;52.210;21.112;2022-12-07T11:42:55;19.17;;;15.95;;
50988;SDS011;37008;52.210;21.112;2022-12-07T11:45:27;18.88;;;14.45;;
50988;SDS011;37008;52.210;21.112;2022-12-07T11:48:57;18.80;;;14.43;;
50988;SDS011;37008;52.210;21.112;2022-12-07T11:50:57;23.73;;;15.80;;
50988;SDS011;37008;52.210;21.112;2022-12-07T11:56:12;18.20;;;14.43;;
50988;SDS011;37008;52.210;21.112;2022-12-07T12:03:52;17.35;;;14.18;;
50988;SDS011;37008;52.210;21.112;2022-12-07T12:06:20;19.02;;;14.23;;
50988;SDS011;37008;52.210;21.112;2022-12-07T12:08:49;16.75;;;14.25;;
50988;SDS011;37008;52.210;21.112;2022-12-07T12:17:19;19.67;;;14.75;;
50988;SDS011;37008;52.210;21.112;2022-12-07T12:22:43;21.08;;;14.93;;
50988;SDS011;37008;52.210;21.112;2022-12-07T12:25:42;20.33;;;15.10;;
50988;SDS011;37008;52.210;21.112;2022-12-07T12:28:58;21.50;;;15.98;;
50988;SDS011;37008;52.210;21.112;2022-12-07T12:31:15;20.10;;;15.88;;
50988;SDS011;37008;52.210;21.112;2022-12-07T12:33:52;20.52;;;15.93;;
50988;SDS011;37008;52.210;21.112;2022-12-07T12:36:22;22.73;;;17.15;;
50988;SDS011;37008;52.210;21.112;2022-12-07T12:47:37;26.63;;;17.52;;
50988;SDS011;37008;52.210;21.112;2022-12-07T12:57:35;23.50;;;16.92;;
50988;SDS011;37008;52.210;21.112;2022-12-07T13:00:17;24.30;;;16.23;;
50988;SDS011;37008;52.210;21.112;2022-12-07T13:02:50;21.73;;;15.82;;
50988;SDS011;37008;52.210;21.112;2022-12-07T13:05:26;23.88;;;16.60;;
50988;SDS011;37008;52.210;21.112;2022-12-07T13:10:43;18.80;;;14.52;;
50988;SDS011;37008;52.210;21.112;2022-12-07T13:18:35;19.42;;;15.25;;
50988;SDS011;37008;52.210;21.112;2022-12-07T13:31:49;21.52;;;15.40;;
50988;SDS011;37008;52.210;21.112;2022-12-07T13:37:10;15.60;;;12.60;;
50988;SDS011;37008;52.210;21.112;2022-12-07T13:42:32;18.35;;;13.80;;
50988;SDS011;37008;52.210;21.112;2022-12-07T13:45:01;17.90;;;13.85;;
50988;SDS011;37008;52.210;21.112;2022-12-07T13:50:52;19.92;;;15.57;;
50988;SDS011;37008;52.210;21.112;2022-12-07T13:53:22;20.55;;;16.45;;
50988;SDS011;37008;52.210;21.112;2022-12-07T13:55:48;23.10;;;18.45;;
50988;SDS011;37008;52.210;21.112;2022-12-07T13:58:15;20.77;;;16.52;;
50988;SDS011;37008;52.210;21.112;2022-12-07T14:00:41;21.45;;;16.83;;
50988;SDS011;37008;52.210;21.112;2022-12-07T14:05:37;21.80;;;17.17;;
50988;SDS011;37008;52.210;21.112;2022-12-07T14:08:05;23.17;;;17.90;;
50988;SDS011;37008;52.210;21.112;2022-12-07T14:15:59;23.80;;;16.40;;
50988;SDS011;37008;52.210;21.112;2022-12-07T14:18:34;21.30;;;15.65;;
50988;SDS011;37008;52.210;21.112;2022-12-07T14:23:36;19.15;;;15.43;;
50988;SDS011;37008;52.210;21.112;2022-12-07T14:26:05;19.88;;;14.50;;
50988;SDS011;37008;52.210;21.112;2022-12-07T14:28:38;17.67;;;14.23;;
50988;SDS011;37008;52.210;21.112;2022-12-07T14:31:08;19.98;;;15.02;;
50988;SDS011;37008;52.210;21.112;2022-12-07T14:33:43;17.52;;;14.40;;
50988;SDS011;37008;52.210;21.112;2022-12-07T14:36:13;22.00;;;15.57;;
50988;SDS011;37008;52.210;21.112;2022-12-07T14:38:39;20.35;;;15.85;;
50988;SDS011;37008;52.210;21.112;2022-12-07T14:41:14;19.35;;;15.82;;
50988;SDS011;37008;52.210;21.112;2022-12-07T14:44:09;21.50;;;16.45;;
50988;SDS011;37008;52.210;21.112;2022-12-07T14:46:36;19.60;;;14.95;;
50988;SDS011;37008;52.210;21.112;2022-12-07T14:49:05;26.13;;;18.35;;
50988;SDS011;37008;52.210;21.112;2022-12-07T14:51:30;21.92;;;17.98;;
50988;SDS011;37008;52.210;21.112;2022-12-07T14:53:57;22.48;;;16.67;;
50988;SDS011;37008;52.210;21.112;2022-12-07T14:56:26;22.02;;;17.80;;
50988;SDS011;37008;52.210;21.112;2022-12-07T14:58:52;22.95;;;18.25;;
50988;SDS011;37008;52.210;21.112;2022-12-07T15:01:18;26.98;;;19.60;;
50988;SDS011;37008;52.210;21.112;2022-12-07T15:03:44;22.88;;;18.45;;
50988;SDS011;37008;52.210;21.112;2022-12-07T15:06:10;27.02;;;20.20;;
50988;SDS011;37008;52.210;21.112;2022-12-07T15:08:43;26.05;;;19.58;;
50988;SDS011;37008;52.210;21.112;2022-12-07T15:11:13;25.23;;;18.38;;
50988;SDS011;37008;52.210;21.112;2022-12-07T15:13:39;26.23;;;19.80;;
50988;SDS011;37008;52.210;21.112;2022-12-07T15:16:24;25.40;;;20.08;;
50988;SDS011;37008;52.210;21.112;2022-12-07T15:18:49;28.73;;;20.23;;
50988;SDS011;37008;52.210;21.112;2022-12-07T15:21:16;28.77;;;20.52;;
50988;SDS011;37008;52.210;21.112;2022-12-07T15:23:42;32.95;;;22.50;;
50988;SDS011;37008;52.210;21.112;2022-12-07T15:26:11;35.35;;;24.45;;
50988;SDS011;37008;52.210;21.112;2022-12-07T15:28:37;47.08;;;30.90;;
50988;SDS011;37008;52.210;21.112;2022-12-07T15:31:03;33.88;;;23.70;;
50988;SDS011;37008;52.210;21.112;2022-12-07T15:33:28;36.38;;;23.40;;
50988;SDS011;37008;52.210;21.112;2022-12-07T15:35:58;37.28;;;25.83;;
50988;SDS011;37008;52.210;21.112;2022-12-07T15:38:24;40.63;;;26.13;;
50988;SDS011;37008;52.210;21.112;2022-12-07T15:40:52;43.75;;;29.02;;
50988;SDS011;37008;52.210;21.112;2022-12-07T15:43:17;41.47;;;27.00;;
50988;SDS011;37008;52.210;21.112;2022-12-07T15:46:01;39.00;;;26.75;;
50988;SDS011;37008;52.210;21.112;2022-12-07T15:48:27;42.38;;;27.52;;
50988;SDS011;37008;52.210;21.112;2022-12-07T15:50:52;73.00;;;39.15;;
50988;SDS011;37008;52.210;21.112;2022-12-07T15:53:18;33.10;;;25.30;;
50988;SDS011;37008;52.210;21.112;2022-12-07T15:55:43;33.70;;;23.42;;
50988;SDS011;37008;52.210;21.112;2022-12-07T15:58:09;35.92;;;25.38;;
50988;SDS011;37008;52.210;21.112;2022-12-07T16:00:35;36.10;;;25.08;;
50988;SDS011;37008;52.210;21.112;2022-12-07T16:03:00;38.42;;;25.33;;
50988;SDS011;37008;52.210;21.112;2022-12-07T16:05:26;72.10;;;40.28;;
50988;SDS011;37008;52.210;21.112;2022-12-07T16:07:51;37.40;;;25.15;;
50988;SDS011;37008;52.210;21.112;2022-12-07T16:10:17;31.85;;;23.67;;
50988;SDS011;37008;52.210;21.112;2022-12-07T16:12:45;37.35;;;23.40;;
50988;SDS011;37008;52.210;21.112;2022-12-07T16:15:11;35.65;;;24.33;;
50988;SDS011;37008;52.210;21.112;2022-12-07T16:17:36;42.08;;;26.73;;
50988;SDS011;37008;52.210;21.112;2022-12-07T16:20:03;40.88;;;29.17;;
50988;SDS011;37008;52.210;21.112;2022-12-07T16:22:29;33.97;;;23.10;;
50988;SDS011;37008;52.210;21.112;2022-12-07T16:24:54;33.40;;;23.83;;
50988;SDS011;37008;52.210;21.112;2022-12-07T16:27:20;37.40;;;26.08;;